sensor_id;sensor_type;location;lat;lon;timestamp;temperature;humidity
22827;DHT22;11580;52.562;13.418;2022-08-18T00:00:28;26.90;31.90
22827;DHT22;11580;52.562;13.418;2022-08-18T00:03:03;26.90;31.90
22827;DHT22;11580;52.562;13.418;2022-08-18T00:05:34;26.80;32.40
22827;DHT22;11580;52.562;13.418;2022-08-18T00:08:01;26.80;32.30
22827;DHT22;11580;52.562;13.418;2022-08-18T00:10:29;26.80;32.10
22827;DHT22;11580;52.562;13.418;2022-08-18T00:12:58;26.80;32.20
22827;DHT22;11580;52.562;13.418;2022-08-18T00:15:26;26.80;32.30
22827;DHT22;11580;52.562;13.418;2022-08-18T00:17:53;26.70;32.30
22827;DHT22;11580;52.562;13.418;2022-08-18T00:20:22;26.70;32.30
22827;DHT22;11580;52.562;13.418;2022-08-18T00:22:52;26.70;32.50
22827;DHT22;11580;52.562;13.418;2022-08-18T00:25:21;26.60;32.60
22827;DHT22;11580;52.562;13.418;2022-08-18T00:27:49;26.60;32.50
22827;DHT22;11580;52.562;13.418;2022-08-18T00:30:18;26.60;32.50
22827;DHT22;11580;52.562;13.418;2022-08-18T00:32:48;26.60;32.80
22827;DHT22;11580;52.562;13.418;2022-08-18T00:35:20;26.50;32.80
22827;DHT22;11580;52.562;13.418;2022-08-18T00:37:53;26.50;33.10
22827;DHT22;11580;52.562;13.418;2022-08-18T00:40:25;26.50;33.00
22827;DHT22;11580;52.562;13.418;2022-08-18T00:42:59;26.40;33.70
22827;DHT22;11580;52.562;13.418;2022-08-18T00:45:32;26.40;33.80
22827;DHT22;11580;52.562;13.418;2022-08-18T00:48:02;26.30;33.20
22827;DHT22;11580;52.562;13.418;2022-08-18T00:50:34;26.30;32.90
22827;DHT22;11580;52.562;13.418;2022-08-18T00:53:09;26.30;33.40
22827;DHT22;11580;52.562;13.418;2022-08-18T00:55:40;26.20;33.40
22827;DHT22;11580;52.562;13.418;2022-08-18T00:58:13;26.20;33.00
22827;DHT22;11580;52.562;13.418;2022-08-18T01:00:46;26.20;33.40
22827;DHT22;11580;52.562;13.418;2022-08-18T01:03:16;26.10;33.20
22827;DHT22;11580;52.562;13.418;2022-08-18T01:05:50;26.10;33.20
22827;DHT22;11580;52.562;13.418;2022-08-18T01:08:22;26.00;33.50
22827;DHT22;11580;52.562;13.418;2022-08-18T01:10:50;26.00;33.40
22827;DHT22;11580;52.562;13.418;2022-08-18T01:13:19;26.00;33.30
22827;DHT22;11580;52.562;13.418;2022-08-18T01:15:47;26.00;33.40
22827;DHT22;11580;52.562;13.418;2022-08-18T01:18:14;25.90;33.40
22827;DHT22;11580;52.562;13.418;2022-08-18T01:21:04;25.90;33.50
22827;DHT22;11580;52.562;13.418;2022-08-18T01:23:56;25.80;33.90
22827;DHT22;11580;52.562;13.418;2022-08-18T01:26:25;25.80;33.70
22827;DHT22;11580;52.562;13.418;2022-08-18T01:28:57;25.70;33.70
22827;DHT22;11580;52.562;13.418;2022-08-18T01:31:37;25.70;33.50
22827;DHT22;11580;52.562;13.418;2022-08-18T01:34:11;25.70;33.80
22827;DHT22;11580;52.562;13.418;2022-08-18T01:36:40;25.70;33.60
22827;DHT22;11580;52.562;13.418;2022-08-18T01:39:11;25.70;33.70
22827;DHT22;11580;52.562;13.418;2022-08-18T01:41:39;25.60;33.80
22827;DHT22;11580;52.562;13.418;2022-08-18T01:44:07;25.70;33.60
22827;DHT22;11580;52.562;13.418;2022-08-18T01:46:38;25.70;33.50
22827;DHT22;11580;52.562;13.418;2022-08-18T01:49:08;25.70;33.70
22827;DHT22;11580;52.562;13.418;2022-08-18T01:51:37;25.70;33.60
22827;DHT22;11580;52.562;13.418;2022-08-18T01:54:11;25.70;33.50
22827;DHT22;11580;52.562;13.418;2022-08-18T01:56:41;25.70;33.50
22827;DHT22;11580;52.562;13.418;2022-08-18T01:59:09;25.70;34.10
22827;DHT22;11580;52.562;13.418;2022-08-18T02:01:41;25.70;33.40
22827;DHT22;11580;52.562;13.418;2022-08-18T02:04:10;25.70;33.30
22827;DHT22;11580;52.562;13.418;2022-08-18T02:06:39;25.70;33.20
22827;DHT22;11580;52.562;13.418;2022-08-18T02:09:07;25.70;33.30
22827;DHT22;11580;52.562;13.418;2022-08-18T02:11:35;25.70;33.20
22827;DHT22;11580;52.562;13.418;2022-08-18T02:14:03;25.70;33.30
22827;DHT22;11580;52.562;13.418;2022-08-18T02:16:30;25.60;33.80
22827;DHT22;11580;52.562;13.418;2022-08-18T02:18:58;25.60;33.10
22827;DHT22;11580;52.562;13.418;2022-08-18T02:21:25;25.60;33.00
22827;DHT22;11580;52.562;13.418;2022-08-18T02:23:52;25.60;33.00
22827;DHT22;11580;52.562;13.418;2022-08-18T02:26:20;25.50;32.90
22827;DHT22;11580;52.562;13.418;2022-08-18T02:28:50;25.50;32.90
22827;DHT22;11580;52.562;13.418;2022-08-18T02:31:20;25.50;33.00
22827;DHT22;11580;52.562;13.418;2022-08-18T02:33:49;25.50;32.90
22827;DHT22;11580;52.562;13.418;2022-08-18T02:36:17;25.50;32.90
22827;DHT22;11580;52.562;13.418;2022-08-18T02:38:44;25.50;32.90
22827;DHT22;11580;52.562;13.418;2022-08-18T02:41:12;25.50;32.80
22827;DHT22;11580;52.562;13.418;2022-08-18T02:43:41;25.50;32.90
22827;DHT22;11580;52.562;13.418;2022-08-18T02:46:10;25.40;32.80
22827;DHT22;11580;52.562;13.418;2022-08-18T02:48:37;25.40;32.90
22827;DHT22;11580;52.562;13.418;2022-08-18T02:51:07;25.40;32.80
22827;DHT22;11580;52.562;13.418;2022-08-18T02:53:37;25.40;32.90
22827;DHT22;11580;52.562;13.418;2022-08-18T02:56:07;25.40;32.90
22827;DHT22;11580;52.562;13.418;2022-08-18T02:58:51;25.40;33.00
22827;DHT22;11580;52.562;13.418;2022-08-18T03:01:24;25.40;33.00
22827;DHT22;11580;52.562;13.418;2022-08-18T03:03:54;25.40;33.20
22827;DHT22;11580;52.562;13.418;2022-08-18T03:06:25;25.30;33.00
22827;DHT22;11580;52.562;13.418;2022-08-18T03:08:54;25.30;33.80
22827;DHT22;11580;52.562;13.418;2022-08-18T03:11:23;25.30;33.00
22827;DHT22;11580;52.562;13.418;2022-08-18T03:13:53;25.30;33.10
22827;DHT22;11580;52.562;13.418;2022-08-18T03:16:23;25.30;33.10
22827;DHT22;11580;52.562;13.418;2022-08-18T03:18:51;25.30;33.30
22827;DHT22;11580;52.562;13.418;2022-08-18T03:21:22;25.20;33.10
22827;DHT22;11580;52.562;13.418;2022-08-18T03:23:53;25.20;33.20
22827;DHT22;11580;52.562;13.418;2022-08-18T03:26:22;25.20;33.20
22827;DHT22;11580;52.562;13.418;2022-08-18T03:28:53;25.00;33.00
22827;DHT22;11580;52.562;13.418;2022-08-18T03:31:23;25.20;33.30
22827;DHT22;11580;52.562;13.418;2022-08-18T03:33:53;25.20;33.30
22827;DHT22;11580;52.562;13.418;2022-08-18T03:36:23;25.10;33.20
22827;DHT22;11580;52.562;13.418;2022-08-18T03:38:52;25.10;33.30
22827;DHT22;11580;52.562;13.418;2022-08-18T03:41:22;25.10;33.30
22827;DHT22;11580;52.562;13.418;2022-08-18T03:43:51;25.10;33.40
22827;DHT22;11580;52.562;13.418;2022-08-18T03:46:20;25.00;33.60
22827;DHT22;11580;52.562;13.418;2022-08-18T03:48:50;25.00;33.80
22827;DHT22;11580;52.562;13.418;2022-08-18T03:51:20;25.00;34.10
22827;DHT22;11580;52.562;13.418;2022-08-18T03:53:51;25.00;34.20
22827;DHT22;11580;52.562;13.418;2022-08-18T03:56:23;25.00;34.00
22827;DHT22;11580;52.562;13.418;2022-08-18T03:58:56;25.00;34.30
22827;DHT22;11580;52.562;13.418;2022-08-18T04:01:27;24.90;34.30
22827;DHT22;11580;52.562;13.418;2022-08-18T04:03:59;24.90;34.30
22827;DHT22;11580;52.562;13.418;2022-08-18T04:06:31;24.90;34.40
22827;DHT22;11580;52.562;13.418;2022-08-18T04:09:02;24.90;34.30
22827;DHT22;11580;52.562;13.418;2022-08-18T04:11:32;24.90;34.30
22827;DHT22;11580;52.562;13.418;2022-08-18T04:14:01;24.90;34.30
22827;DHT22;11580;52.562;13.418;2022-08-18T04:16:30;24.90;35.00
22827;DHT22;11580;52.562;13.418;2022-08-18T04:19:01;24.90;34.50
22827;DHT22;11580;52.562;13.418;2022-08-18T04:21:29;24.90;34.50
22827;DHT22;11580;52.562;13.418;2022-08-18T04:23:58;24.90;34.30
22827;DHT22;11580;52.562;13.418;2022-08-18T04:26:30;24.90;34.30
22827;DHT22;11580;52.562;13.418;2022-08-18T04:28:58;25.00;34.40
22827;DHT22;11580;52.562;13.418;2022-08-18T04:31:28;25.00;34.30
22827;DHT22;11580;52.562;13.418;2022-08-18T04:33:57;25.10;34.30
22827;DHT22;11580;52.562;13.418;2022-08-18T04:36:29;25.20;34.30
22827;DHT22;11580;52.562;13.418;2022-08-18T04:38:58;25.20;34.30
22827;DHT22;11580;52.562;13.418;2022-08-18T04:41:26;25.30;34.20
22827;DHT22;11580;52.562;13.418;2022-08-18T04:43:54;25.40;33.90
22827;DHT22;11580;52.562;13.418;2022-08-18T04:46:24;25.50;33.90
22827;DHT22;11580;52.562;13.418;2022-08-18T04:48:52;25.50;33.80
22827;DHT22;11580;52.562;13.418;2022-08-18T04:51:27;25.60;33.80
22827;DHT22;11580;52.562;13.418;2022-08-18T04:53:56;25.70;33.80
22827;DHT22;11580;52.562;13.418;2022-08-18T04:56:28;25.70;33.70
22827;DHT22;11580;52.562;13.418;2022-08-18T04:59:00;25.80;33.70
22827;DHT22;11580;52.562;13.418;2022-08-18T05:01:36;25.90;33.60
22827;DHT22;11580;52.562;13.418;2022-08-18T05:04:08;26.00;33.60
22827;DHT22;11580;52.562;13.418;2022-08-18T05:06:40;26.10;33.50
22827;DHT22;11580;52.562;13.418;2022-08-18T05:09:10;26.20;33.40
22827;DHT22;11580;52.562;13.418;2022-08-18T05:11:40;26.30;33.30
22827;DHT22;11580;52.562;13.418;2022-08-18T05:14:09;26.40;33.20
22827;DHT22;11580;52.562;13.418;2022-08-18T05:16:37;26.50;33.10
22827;DHT22;11580;52.562;13.418;2022-08-18T05:19:07;26.60;32.90
22827;DHT22;11580;52.562;13.418;2022-08-18T05:21:38;26.70;32.80
22827;DHT22;11580;52.562;13.418;2022-08-18T05:24:07;26.90;32.60
22827;DHT22;11580;52.562;13.418;2022-08-18T05:26:35;27.00;32.40
22827;DHT22;11580;52.562;13.418;2022-08-18T05:29:02;27.10;32.20
22827;DHT22;11580;52.562;13.418;2022-08-18T05:31:30;27.20;32.20
22827;DHT22;11580;52.562;13.418;2022-08-18T05:33:58;27.30;32.10
22827;DHT22;11580;52.562;13.418;2022-08-18T05:36:48;27.40;32.00
22827;DHT22;11580;52.562;13.418;2022-08-18T05:39:27;27.50;31.30
22827;DHT22;11580;52.562;13.418;2022-08-18T05:42:02;27.50;31.30
22827;DHT22;11580;52.562;13.418;2022-08-18T05:44:37;27.60;31.20
22827;DHT22;11580;52.562;13.418;2022-08-18T05:47:11;27.60;31.00
22827;DHT22;11580;52.562;13.418;2022-08-18T05:49:41;27.70;31.00
22827;DHT22;11580;52.562;13.418;2022-08-18T05:52:15;27.80;30.80
22827;DHT22;11580;52.562;13.418;2022-08-18T05:54:51;27.80;30.50
22827;DHT22;11580;52.562;13.418;2022-08-18T05:57:42;27.90;30.70
22827;DHT22;11580;52.562;13.418;2022-08-18T06:00:16;28.00;30.70
22827;DHT22;11580;52.562;13.418;2022-08-18T06:02:52;28.00;30.90
22827;DHT22;11580;52.562;13.418;2022-08-18T06:05:27;28.10;31.00
22827;DHT22;11580;52.562;13.418;2022-08-18T06:08:02;28.10;30.60
22827;DHT22;11580;52.562;13.418;2022-08-18T06:10:34;28.20;30.90
22827;DHT22;11580;52.562;13.418;2022-08-18T06:13:06;28.20;31.00
22827;DHT22;11580;52.562;13.418;2022-08-18T06:15:41;28.30;31.00
22827;DHT22;11580;52.562;13.418;2022-08-18T06:18:31;28.40;31.40
22827;DHT22;11580;52.562;13.418;2022-08-18T06:21:16;28.50;30.50
22827;DHT22;11580;52.562;13.418;2022-08-18T06:24:04;28.60;30.50
22827;DHT22;11580;52.562;13.418;2022-08-18T06:26:40;28.70;30.60
22827;DHT22;11580;52.562;13.418;2022-08-18T06:29:29;28.90;30.80
22827;DHT22;11580;52.562;13.418;2022-08-18T06:32:08;29.00;30.40
22827;DHT22;11580;52.562;13.418;2022-08-18T06:35:00;29.10;30.00
22827;DHT22;11580;52.562;13.418;2022-08-18T06:37:41;29.30;29.90
22827;DHT22;11580;52.562;13.418;2022-08-18T06:40:34;29.50;29.60
22827;DHT22;11580;52.562;13.418;2022-08-18T06:43:02;29.60;29.70
22827;DHT22;11580;52.562;13.418;2022-08-18T06:45:35;29.70;29.60
22827;DHT22;11580;52.562;13.418;2022-08-18T06:48:10;29.80;29.20
22827;DHT22;11580;52.562;13.418;2022-08-18T06:50:48;29.90;29.20
22827;DHT22;11580;52.562;13.418;2022-08-18T06:53:18;30.00;29.10
22827;DHT22;11580;52.562;13.418;2022-08-18T06:55:49;30.00;29.10
22827;DHT22;11580;52.562;13.418;2022-08-18T06:58:25;30.10;29.50
22827;DHT22;11580;52.562;13.418;2022-08-18T07:00:58;30.20;28.50
22827;DHT22;11580;52.562;13.418;2022-08-18T07:03:51;30.20;28.60
22827;DHT22;11580;52.562;13.418;2022-08-18T07:06:28;30.30;28.40
22827;DHT22;11580;52.562;13.418;2022-08-18T07:09:18;30.40;28.40
22827;DHT22;11580;52.562;13.418;2022-08-18T07:12:02;30.40;28.40
22827;DHT22;11580;52.562;13.418;2022-08-18T07:14:40;30.50;28.20
22827;DHT22;11580;52.562;13.418;2022-08-18T07:17:11;30.60;28.40
22827;DHT22;11580;52.562;13.418;2022-08-18T07:19:40;30.60;28.20
22827;DHT22;11580;52.562;13.418;2022-08-18T07:22:09;30.70;28.10
22827;DHT22;11580;52.562;13.418;2022-08-18T07:24:40;30.80;28.00
22827;DHT22;11580;52.562;13.418;2022-08-18T07:27:14;30.90;27.90
22827;DHT22;11580;52.562;13.418;2022-08-18T07:29:59;30.90;27.50
22827;DHT22;11580;52.562;13.418;2022-08-18T07:32:33;31.00;27.40
22827;DHT22;11580;52.562;13.418;2022-08-18T07:35:07;31.10;27.40
22827;DHT22;11580;52.562;13.418;2022-08-18T07:37:38;31.10;27.50
22827;DHT22;11580;52.562;13.418;2022-08-18T07:40:21;31.20;27.40
22827;DHT22;11580;52.562;13.418;2022-08-18T07:42:57;31.30;27.20
22827;DHT22;11580;52.562;13.418;2022-08-18T07:45:32;31.30;27.00
22827;DHT22;11580;52.562;13.418;2022-08-18T07:48:09;31.40;27.20
22827;DHT22;11580;52.562;13.418;2022-08-18T07:51:00;31.60;27.00
22827;DHT22;11580;52.562;13.418;2022-08-18T07:53:41;31.70;26.70
22827;DHT22;11580;52.562;13.418;2022-08-18T07:56:20;31.80;27.10
22827;DHT22;11580;52.562;13.418;2022-08-18T07:59:03;32.00;26.40
22827;DHT22;11580;52.562;13.418;2022-08-18T08:01:42;32.10;26.20
22827;DHT22;11580;52.562;13.418;2022-08-18T08:04:19;32.20;26.10
22827;DHT22;11580;52.562;13.418;2022-08-18T08:07:01;32.30;26.10
22827;DHT22;11580;52.562;13.418;2022-08-18T08:09:40;32.40;25.80
22827;DHT22;11580;52.562;13.418;2022-08-18T08:12:17;32.60;25.80
22827;DHT22;11580;52.562;13.418;2022-08-18T08:14:57;32.60;25.70
22827;DHT22;11580;52.562;13.418;2022-08-18T08:17:40;32.70;25.30
22827;DHT22;11580;52.562;13.418;2022-08-18T08:20:20;32.80;25.40
22827;DHT22;11580;52.562;13.418;2022-08-18T08:23:04;32.80;25.00
22827;DHT22;11580;52.562;13.418;2022-08-18T08:25:48;32.90;25.50
22827;DHT22;11580;52.562;13.418;2022-08-18T08:28:35;33.00;24.90
22827;DHT22;11580;52.562;13.418;2022-08-18T08:31:11;33.10;25.00
22827;DHT22;11580;52.562;13.418;2022-08-18T08:33:46;33.10;25.00
22827;DHT22;11580;52.562;13.418;2022-08-18T08:36:22;33.30;25.00
22827;DHT22;11580;52.562;13.418;2022-08-18T08:38:55;33.30;24.70
22827;DHT22;11580;52.562;13.418;2022-08-18T08:41:31;33.50;24.90
22827;DHT22;11580;52.562;13.418;2022-08-18T08:44:08;33.50;24.60
22827;DHT22;11580;52.562;13.418;2022-08-18T08:46:46;33.60;24.60
22827;DHT22;11580;52.562;13.418;2022-08-18T08:49:27;33.60;24.20
22827;DHT22;11580;52.562;13.418;2022-08-18T08:52:04;33.70;24.60
22827;DHT22;11580;52.562;13.418;2022-08-18T08:54:44;33.80;24.00
22827;DHT22;11580;52.562;13.418;2022-08-18T08:57:16;33.90;24.00
22827;DHT22;11580;52.562;13.418;2022-08-18T08:59:46;33.90;23.80
22827;DHT22;11580;52.562;13.418;2022-08-18T09:02:37;34.00;23.60
22827;DHT22;11580;52.562;13.418;2022-08-18T09:05:20;34.10;23.70
22827;DHT22;11580;52.562;13.418;2022-08-18T09:08:17;34.10;23.70
22827;DHT22;11580;52.562;13.418;2022-08-18T09:14:24;34.30;23.20
22827;DHT22;11580;52.562;13.418;2022-08-18T09:17:31;34.30;23.20
22827;DHT22;11580;52.562;13.418;2022-08-18T09:20:33;34.30;23.20
22827;DHT22;11580;52.562;13.418;2022-08-18T09:23:18;34.30;23.20
22827;DHT22;11580;52.562;13.418;2022-08-18T09:25:49;34.30;23.20
22827;DHT22;11580;52.562;13.418;2022-08-18T09:28:21;34.40;23.20
22827;DHT22;11580;52.562;13.418;2022-08-18T09:31:16;34.40;23.20
22827;DHT22;11580;52.562;13.418;2022-08-18T09:34:02;34.40;23.00
22827;DHT22;11580;52.562;13.418;2022-08-18T09:36:49;34.50;23.00
22827;DHT22;11580;52.562;13.418;2022-08-18T09:39:31;34.60;22.50
22827;DHT22;11580;52.562;13.418;2022-08-18T09:42:28;34.60;22.90
22827;DHT22;11580;52.562;13.418;2022-08-18T09:45:09;34.60;22.30
22827;DHT22;11580;52.562;13.418;2022-08-18T09:48:21;34.70;21.90
22827;DHT22;11580;52.562;13.418;2022-08-18T09:51:19;34.80;21.90
22827;DHT22;11580;52.562;13.418;2022-08-18T09:54:18;34.80;21.60
22827;DHT22;11580;52.562;13.418;2022-08-18T09:57:21;34.80;21.90
22827;DHT22;11580;52.562;13.418;2022-08-18T10:03:22;34.80;21.70
22827;DHT22;11580;52.562;13.418;2022-08-18T10:06:05;34.80;21.50
22827;DHT22;11580;52.562;13.418;2022-08-18T10:11:59;34.90;21.40
22827;DHT22;11580;52.562;13.418;2022-08-18T10:14:55;34.90;21.30
22827;DHT22;11580;52.562;13.418;2022-08-18T10:17:42;35.00;21.40
22827;DHT22;11580;52.562;13.418;2022-08-18T10:20:29;35.20;21.30
22827;DHT22;11580;52.562;13.418;2022-08-18T10:23:05;35.30;21.10
22827;DHT22;11580;52.562;13.418;2022-08-18T10:25:39;35.40;21.90
22827;DHT22;11580;52.562;13.418;2022-08-18T10:31:22;35.70;20.90
22827;DHT22;11580;52.562;13.418;2022-08-18T10:36:39;35.90;20.60
22827;DHT22;11580;52.562;13.418;2022-08-18T10:39:13;35.90;20.30
22827;DHT22;11580;52.562;13.418;2022-08-18T10:42:02;35.90;20.30
22827;DHT22;11580;52.562;13.418;2022-08-18T10:44:37;35.90;20.30
22827;DHT22;11580;52.562;13.418;2022-08-18T10:47:19;35.90;20.10
22827;DHT22;11580;52.562;13.418;2022-08-18T10:49:50;35.90;20.20
22827;DHT22;11580;52.562;13.418;2022-08-18T10:52:57;35.90;20.50
22827;DHT22;11580;52.562;13.418;2022-08-18T10:55:43;35.80;20.20
22827;DHT22;11580;52.562;13.418;2022-08-18T10:58:50;35.90;19.90
22827;DHT22;11580;52.562;13.418;2022-08-18T11:01:39;35.80;20.70
22827;DHT22;11580;52.562;13.418;2022-08-18T11:04:26;35.90;19.90
22827;DHT22;11580;52.562;13.418;2022-08-18T11:07:02;35.90;20.00
22827;DHT22;11580;52.562;13.418;2022-08-18T11:09:33;36.00;19.80
22827;DHT22;11580;52.562;13.418;2022-08-18T11:12:03;36.00;19.70
22827;DHT22;11580;52.562;13.418;2022-08-18T11:17:53;36.10;19.40
22827;DHT22;11580;52.562;13.418;2022-08-18T11:20:31;36.10;19.40
22827;DHT22;11580;52.562;13.418;2022-08-18T11:23:00;36.10;19.50
22827;DHT22;11580;52.562;13.418;2022-08-18T11:25:32;36.10;19.40
22827;DHT22;11580;52.562;13.418;2022-08-18T11:28:13;36.10;19.20
22827;DHT22;11580;52.562;13.418;2022-08-18T11:30:43;36.10;19.10
22827;DHT22;11580;52.562;13.418;2022-08-18T11:33:16;36.10;19.10
22827;DHT22;11580;52.562;13.418;2022-08-18T11:35:48;36.20;18.90
22827;DHT22;11580;52.562;13.418;2022-08-18T11:38:18;36.20;18.90
22827;DHT22;11580;52.562;13.418;2022-08-18T11:40:47;36.20;19.10
22827;DHT22;11580;52.562;13.418;2022-08-18T11:43:19;36.20;18.90
22827;DHT22;11580;52.562;13.418;2022-08-18T11:45:54;36.20;18.80
22827;DHT22;11580;52.562;13.418;2022-08-18T11:48:37;36.30;18.60
22827;DHT22;11580;52.562;13.418;2022-08-18T11:51:17;36.30;18.30
22827;DHT22;11580;52.562;13.418;2022-08-18T11:53:55;36.40;17.90
22827;DHT22;11580;52.562;13.418;2022-08-18T11:56:26;36.40;17.80
22827;DHT22;11580;52.562;13.418;2022-08-18T11:58:56;36.30;17.90
22827;DHT22;11580;52.562;13.418;2022-08-18T12:01:38;36.30;17.90
22827;DHT22;11580;52.562;13.418;2022-08-18T12:04:16;36.30;17.70
22827;DHT22;11580;52.562;13.418;2022-08-18T12:06:58;36.30;17.70
22827;DHT22;11580;52.562;13.418;2022-08-18T12:09:35;36.30;17.80
22827;DHT22;11580;52.562;13.418;2022-08-18T12:12:15;36.30;17.60
22827;DHT22;11580;52.562;13.418;2022-08-18T12:14:53;36.30;17.40
22827;DHT22;11580;52.562;13.418;2022-08-18T12:17:23;36.30;17.40
22827;DHT22;11580;52.562;13.418;2022-08-18T12:19:51;36.30;17.60
22827;DHT22;11580;52.562;13.418;2022-08-18T12:22:20;36.40;17.50
22827;DHT22;11580;52.562;13.418;2022-08-18T12:24:50;36.40;17.40
22827;DHT22;11580;52.562;13.418;2022-08-18T12:27:20;36.40;17.20
22827;DHT22;11580;52.562;13.418;2022-08-18T12:29:49;36.50;17.20
22827;DHT22;11580;52.562;13.418;2022-08-18T12:32:17;36.50;17.60
22827;DHT22;11580;52.562;13.418;2022-08-18T12:34:47;36.60;17.20
22827;DHT22;11580;52.562;13.418;2022-08-18T12:37:17;36.60;17.10
22827;DHT22;11580;52.562;13.418;2022-08-18T12:39:46;36.80;16.80
22827;DHT22;11580;52.562;13.418;2022-08-18T12:42:14;36.90;17.10
22827;DHT22;11580;52.562;13.418;2022-08-18T12:44:41;36.90;17.00
22827;DHT22;11580;52.562;13.418;2022-08-18T12:47:11;37.10;17.10
22827;DHT22;11580;52.562;13.418;2022-08-18T12:49:40;37.30;16.90
22827;DHT22;11580;52.562;13.418;2022-08-18T12:52:08;37.40;16.90
22827;DHT22;11580;52.562;13.418;2022-08-18T12:54:37;37.60;16.90
22827;DHT22;11580;52.562;13.418;2022-08-18T12:57:17;37.80;16.50
22827;DHT22;11580;52.562;13.418;2022-08-18T12:59:46;37.90;16.50
22827;DHT22;11580;52.562;13.418;2022-08-18T13:02:13;38.00;16.40
22827;DHT22;11580;52.562;13.418;2022-08-18T13:04:41;38.10;16.30
22827;DHT22;11580;52.562;13.418;2022-08-18T13:07:10;38.10;17.00
22827;DHT22;11580;52.562;13.418;2022-08-18T13:09:41;38.10;16.30
22827;DHT22;11580;52.562;13.418;2022-08-18T13:12:10;38.20;16.10
22827;DHT22;11580;52.562;13.418;2022-08-18T13:14:38;38.30;16.00
22827;DHT22;11580;52.562;13.418;2022-08-18T13:17:06;38.30;16.30
22827;DHT22;11580;52.562;13.418;2022-08-18T13:19:34;38.40;16.20
22827;DHT22;11580;52.562;13.418;2022-08-18T13:22:02;38.40;16.70
22827;DHT22;11580;52.562;13.418;2022-08-18T13:24:29;38.40;16.20
22827;DHT22;11580;52.562;13.418;2022-08-18T13:26:58;38.30;16.00
22827;DHT22;11580;52.562;13.418;2022-08-18T13:29:25;38.30;16.20
22827;DHT22;11580;52.562;13.418;2022-08-18T13:31:53;38.20;16.30
22827;DHT22;11580;52.562;13.418;2022-08-18T13:34:23;38.10;16.30
22827;DHT22;11580;52.562;13.418;2022-08-18T13:36:52;38.10;16.40
22827;DHT22;11580;52.562;13.418;2022-08-18T13:39:22;38.00;16.30
22827;DHT22;11580;52.562;13.418;2022-08-18T13:41:52;37.90;16.10
22827;DHT22;11580;52.562;13.418;2022-08-18T13:44:21;37.90;16.20
22827;DHT22;11580;52.562;13.418;2022-08-18T13:46:49;37.80;16.10
22827;DHT22;11580;52.562;13.418;2022-08-18T13:49:18;37.70;16.10
22827;DHT22;11580;52.562;13.418;2022-08-18T13:51:46;37.60;16.00
22827;DHT22;11580;52.562;13.418;2022-08-18T13:54:20;37.60;15.90
22827;DHT22;11580;52.562;13.418;2022-08-18T13:56:48;37.60;15.80
22827;DHT22;11580;52.562;13.418;2022-08-18T13:59:16;37.60;15.90
22827;DHT22;11580;52.562;13.418;2022-08-18T14:01:45;37.60;15.80
22827;DHT22;11580;52.562;13.418;2022-08-18T14:04:13;37.60;15.70
22827;DHT22;11580;52.562;13.418;2022-08-18T14:06:41;37.60;15.80
22827;DHT22;11580;52.562;13.418;2022-08-18T14:09:08;37.60;15.70
22827;DHT22;11580;52.562;13.418;2022-08-18T14:11:37;37.60;15.70
22827;DHT22;11580;52.562;13.418;2022-08-18T14:14:04;37.60;15.50
22827;DHT22;11580;52.562;13.418;2022-08-18T14:16:33;37.70;15.60
22827;DHT22;11580;52.562;13.418;2022-08-18T14:19:02;37.70;15.50
22827;DHT22;11580;52.562;13.418;2022-08-18T14:21:49;37.70;15.40
22827;DHT22;11580;52.562;13.418;2022-08-18T14:24:35;37.70;15.50
22827;DHT22;11580;52.562;13.418;2022-08-18T14:27:24;37.80;15.40
22827;DHT22;11580;52.562;13.418;2022-08-18T14:29:53;37.80;15.30
22827;DHT22;11580;52.562;13.418;2022-08-18T14:32:22;37.80;15.60
22827;DHT22;11580;52.562;13.418;2022-08-18T14:34:52;37.80;15.50
22827;DHT22;11580;52.562;13.418;2022-08-18T14:37:20;37.90;15.50
22827;DHT22;11580;52.562;13.418;2022-08-18T14:39:48;37.90;15.50
22827;DHT22;11580;52.562;13.418;2022-08-18T14:42:17;37.80;15.30
22827;DHT22;11580;52.562;13.418;2022-08-18T14:44:45;37.80;15.40
22827;DHT22;11580;52.562;13.418;2022-08-18T14:47:13;37.70;15.50
22827;DHT22;11580;52.562;13.418;2022-08-18T14:49:41;37.60;15.90
22827;DHT22;11580;52.562;13.418;2022-08-18T14:52:10;37.50;16.10
22827;DHT22;11580;52.562;13.418;2022-08-18T14:54:37;37.30;16.30
22827;DHT22;11580;52.562;13.418;2022-08-18T14:57:05;36.90;16.60
22827;DHT22;11580;52.562;13.418;2022-08-18T14:59:34;36.70;17.00
22827;DHT22;11580;52.562;13.418;2022-08-18T15:02:02;36.50;17.30
22827;DHT22;11580;52.562;13.418;2022-08-18T15:04:29;36.30;17.50
22827;DHT22;11580;52.562;13.418;2022-08-18T15:06:57;36.10;17.70
22827;DHT22;11580;52.562;13.418;2022-08-18T15:09:25;35.90;18.00
22827;DHT22;11580;52.562;13.418;2022-08-18T15:11:54;35.70;18.20
22827;DHT22;11580;52.562;13.418;2022-08-18T15:14:23;35.50;18.40
22827;DHT22;11580;52.562;13.418;2022-08-18T15:16:51;35.30;18.80
22827;DHT22;11580;52.562;13.418;2022-08-18T15:19:18;35.10;18.80
22827;DHT22;11580;52.562;13.418;2022-08-18T15:21:47;35.00;19.10
22827;DHT22;11580;52.562;13.418;2022-08-18T15:24:33;34.80;19.10
22827;DHT22;11580;52.562;13.418;2022-08-18T15:27:22;34.70;19.20
22827;DHT22;11580;52.562;13.418;2022-08-18T15:29:56;34.60;19.30
22827;DHT22;11580;52.562;13.418;2022-08-18T15:32:23;34.50;19.30
22827;DHT22;11580;52.562;13.418;2022-08-18T15:34:50;34.40;19.40
22827;DHT22;11580;52.562;13.418;2022-08-18T15:37:18;34.30;19.40
22827;DHT22;11580;52.562;13.418;2022-08-18T15:39:47;34.20;19.50
22827;DHT22;11580;52.562;13.418;2022-08-18T15:42:15;34.10;19.80
22827;DHT22;11580;52.562;13.418;2022-08-18T15:44:42;34.10;19.80
22827;DHT22;11580;52.562;13.418;2022-08-18T15:47:09;34.00;19.80
22827;DHT22;11580;52.562;13.418;2022-08-18T15:49:36;33.90;19.80
22827;DHT22;11580;52.562;13.418;2022-08-18T15:52:04;33.90;19.90
22827;DHT22;11580;52.562;13.418;2022-08-18T15:54:31;33.80;19.90
22827;DHT22;11580;52.562;13.418;2022-08-18T15:57:00;33.80;20.20
22827;DHT22;11580;52.562;13.418;2022-08-18T15:59:27;33.70;20.00
22827;DHT22;11580;52.562;13.418;2022-08-18T16:01:54;33.70;20.00
22827;DHT22;11580;52.562;13.418;2022-08-18T16:04:22;33.60;19.90
22827;DHT22;11580;52.562;13.418;2022-08-18T16:06:49;33.60;20.00
22827;DHT22;11580;52.562;13.418;2022-08-18T16:09:16;33.60;20.00
22827;DHT22;11580;52.562;13.418;2022-08-18T16:11:43;33.60;20.10
22827;DHT22;11580;52.562;13.418;2022-08-18T16:14:13;33.50;20.00